sensor_id;sensor_type;location;lat;lon;timestamp;P1;durP1;ratioP1;P2;durP2;ratioP2
47599;SDS011;33323;52.124;6.018;2022-11-15T00:01:43;35.83;;;16.73;;
47599;SDS011;33323;52.124;6.018;2022-11-15T00:04:28;40.97;;;17.52;;
47599;SDS011;33323;52.124;6.018;2022-11-15T00:07:14;43.13;;;17.88;;
47599;SDS011;33323;52.124;6.018;2022-11-15T00:10:20;35.38;;;17.98;;
47599;SDS011;33323;52.124;6.018;2022-11-15T00:13:09;37.63;;;18.08;;
47599;SDS011;33323;52.124;6.018;2022-11-15T00:15:57;38.88;;;16.65;;
47599;SDS011;33323;52.124;6.018;2022-11-15T00:18:45;45.65;;;19.13;;
47599;SDS011;33323;52.124;6.018;2022-11-15T00:21:34;43.45;;;18.75;;
47599;SDS011;33323;52.124;6.018;2022-11-15T00:24:20;40.42;;;17.20;;
47599;SDS011;33323;52.124;6.018;2022-11-15T00:27:06;42.38;;;19.17;;
47599;SDS011;33323;52.124;6.018;2022-11-15T00:29:52;43.55;;;16.58;;
47599;SDS011;33323;52.124;6.018;2022-11-15T00:32:38;49.47;;;19.33;;
47599;SDS011;33323;52.124;6.018;2022-11-15T00:35:24;45.58;;;17.58;;
47599;SDS011;33323;52.124;6.018;2022-11-15T00:38:10;49.60;;;19.63;;
47599;SDS011;33323;52.124;6.018;2022-11-15T00:40:55;45.33;;;19.63;;
47599;SDS011;33323;52.124;6.018;2022-11-15T00:43:41;43.08;;;19.17;;
47599;SDS011;33323;52.124;6.018;2022-11-15T00:46:28;45.60;;;19.15;;
47599;SDS011;33323;52.124;6.018;2022-11-15T00:49:14;49.85;;;21.25;;
47599;SDS011;33323;52.124;6.018;2022-11-15T00:51:59;46.08;;;18.45;;
47599;SDS011;33323;52.124;6.018;2022-11-15T00:54:45;52.93;;;21.43;;
47599;SDS011;33323;52.124;6.018;2022-11-15T00:57:30;55.25;;;20.55;;
47599;SDS011;33323;52.124;6.018;2022-11-15T01:00:16;50.67;;;18.70;;
47599;SDS011;33323;52.124;6.018;2022-11-15T01:03:02;55.15;;;22.02;;
47599;SDS011;33323;52.124;6.018;2022-11-15T01:05:48;56.10;;;21.75;;
47599;SDS011;33323;52.124;6.018;2022-11-15T01:08:34;56.72;;;24.50;;
47599;SDS011;33323;52.124;6.018;2022-11-15T01:11:20;42.67;;;20.30;;
47599;SDS011;33323;52.124;6.018;2022-11-15T01:14:05;55.10;;;23.75;;
47599;SDS011;33323;52.124;6.018;2022-11-15T01:16:51;48.50;;;22.58;;
47599;SDS011;33323;52.124;6.018;2022-11-15T01:19:37;54.72;;;23.27;;
47599;SDS011;33323;52.124;6.018;2022-11-15T01:22:22;50.55;;;21.92;;
47599;SDS011;33323;52.124;6.018;2022-11-15T01:25:08;50.63;;;22.02;;
47599;SDS011;33323;52.124;6.018;2022-11-15T01:27:54;49.55;;;21.10;;
47599;SDS011;33323;52.124;6.018;2022-11-15T01:30:39;52.97;;;20.93;;
47599;SDS011;33323;52.124;6.018;2022-11-15T01:33:25;62.97;;;26.02;;
47599;SDS011;33323;52.124;6.018;2022-11-15T01:36:16;49.63;;;22.38;;
47599;SDS011;33323;52.124;6.018;2022-11-15T01:39:03;58.30;;;25.20;;
47599;SDS011;33323;52.124;6.018;2022-11-15T01:41:49;54.33;;;23.80;;
47599;SDS011;33323;52.124;6.018;2022-11-15T01:44:46;39.45;;;19.42;;
47599;SDS011;33323;52.124;6.018;2022-11-15T01:47:37;44.85;;;21.40;;
47599;SDS011;33323;52.124;6.018;2022-11-15T01:50:31;51.15;;;24.52;;
47599;SDS011;33323;52.124;6.018;2022-11-15T01:53:18;51.00;;;21.10;;
47599;SDS011;33323;52.124;6.018;2022-11-15T01:56:07;50.00;;;24.38;;
47599;SDS011;33323;52.124;6.018;2022-11-15T01:58:57;46.30;;;23.15;;
47599;SDS011;33323;52.124;6.018;2022-11-15T02:01:45;55.00;;;24.42;;
47599;SDS011;33323;52.124;6.018;2022-11-15T02:04:32;55.22;;;23.98;;
47599;SDS011;33323;52.124;6.018;2022-11-15T02:07:25;52.25;;;24.50;;
47599;SDS011;33323;52.124;6.018;2022-11-15T02:10:14;52.50;;;23.83;;
47599;SDS011;33323;52.124;6.018;2022-11-15T02:13:05;47.30;;;22.05;;
47599;SDS011;33323;52.124;6.018;2022-11-15T02:22:43;47.38;;;22.92;;
47599;SDS011;33323;52.124;6.018;2022-11-15T02:28:59;42.47;;;22.48;;
47599;SDS011;33323;52.124;6.018;2022-11-15T02:31:55;49.00;;;24.15;;
47599;SDS011;33323;52.124;6.018;2022-11-15T02:37:48;47.38;;;22.38;;
47599;SDS011;33323;52.124;6.018;2022-11-15T02:43:53;40.97;;;21.15;;
47599;SDS011;33323;52.124;6.018;2022-11-15T02:46:57;41.30;;;20.38;;
47599;SDS011;33323;52.124;6.018;2022-11-15T02:50:18;50.08;;;24.02;;
47599;SDS011;33323;52.124;6.018;2022-11-15T02:53:07;44.83;;;23.27;;
47599;SDS011;33323;52.124;6.018;2022-11-15T02:55:54;43.80;;;24.73;;
47599;SDS011;33323;52.124;6.018;2022-11-15T03:02:38;47.15;;;21.05;;
47599;SDS011;33323;52.124;6.018;2022-11-15T03:09:05;46.95;;;23.08;;
47599;SDS011;33323;52.124;6.018;2022-11-15T03:12:36;45.80;;;22.50;;
47599;SDS011;33323;52.124;6.018;2022-11-15T03:15:53;41.65;;;22.30;;
47599;SDS011;33323;52.124;6.018;2022-11-15T03:19:28;45.67;;;23.08;;
47599;SDS011;33323;52.124;6.018;2022-11-15T03:22:20;43.53;;;21.27;;
47599;SDS011;33323;52.124;6.018;2022-11-15T03:25:10;44.53;;;23.35;;
47599;SDS011;33323;52.124;6.018;2022-11-15T03:28:03;42.40;;;22.15;;
47599;SDS011;33323;52.124;6.018;2022-11-15T03:30:51;38.70;;;22.00;;
47599;SDS011;33323;52.124;6.018;2022-11-15T03:33:39;38.88;;;21.55;;
47599;SDS011;33323;52.124;6.018;2022-11-15T03:36:26;44.78;;;22.52;;
47599;SDS011;33323;52.124;6.018;2022-11-15T03:39:13;38.42;;;20.33;;
47599;SDS011;33323;52.124;6.018;2022-11-15T03:42:08;42.80;;;20.10;;
47599;SDS011;33323;52.124;6.018;2022-11-15T03:48:41;41.10;;;20.55;;
47599;SDS011;33323;52.124;6.018;2022-11-15T03:51:34;34.50;;;19.48;;
47599;SDS011;33323;52.124;6.018;2022-11-15T03:54:20;37.03;;;20.17;;
47599;SDS011;33323;52.124;6.018;2022-11-15T03:57:06;32.70;;;18.70;;
47599;SDS011;33323;52.124;6.018;2022-11-15T03:59:51;35.17;;;20.67;;
47599;SDS011;33323;52.124;6.018;2022-11-15T04:02:37;33.50;;;19.02;;
47599;SDS011;33323;52.124;6.018;2022-11-15T04:05:23;29.15;;;17.00;;
47599;SDS011;33323;52.124;6.018;2022-11-15T04:08:09;39.92;;;19.23;;
47599;SDS011;33323;52.124;6.018;2022-11-15T04:10:54;34.30;;;17.95;;
47599;SDS011;33323;52.124;6.018;2022-11-15T04:13:40;43.25;;;19.02;;
47599;SDS011;33323;52.124;6.018;2022-11-15T04:16:26;37.13;;;18.70;;
47599;SDS011;33323;52.124;6.018;2022-11-15T04:19:12;34.47;;;20.23;;
47599;SDS011;33323;52.124;6.018;2022-11-15T04:22:16;34.92;;;17.45;;
47599;SDS011;33323;52.124;6.018;2022-11-15T04:25:20;43.58;;;22.15;;
47599;SDS011;33323;52.124;6.018;2022-11-15T04:28:11;47.35;;;21.73;;
47599;SDS011;33323;52.124;6.018;2022-11-15T04:30:56;38.45;;;18.50;;
47599;SDS011;33323;52.124;6.018;2022-11-15T04:33:42;38.38;;;18.65;;
47599;SDS011;33323;52.124;6.018;2022-11-15T04:36:28;31.63;;;15.00;;
47599;SDS011;33323;52.124;6.018;2022-11-15T04:39:32;36.83;;;19.98;;
47599;SDS011;33323;52.124;6.018;2022-11-15T04:42:18;38.20;;;20.10;;
47599;SDS011;33323;52.124;6.018;2022-11-15T04:45:03;33.58;;;18.23;;
47599;SDS011;33323;52.124;6.018;2022-11-15T04:47:50;33.78;;;18.45;;
47599;SDS011;33323;52.124;6.018;2022-11-15T04:50:35;41.60;;;20.95;;
47599;SDS011;33323;52.124;6.018;2022-11-15T04:53:21;39.22;;;19.75;;
47599;SDS011;33323;52.124;6.018;2022-11-15T04:56:07;34.28;;;19.48;;
47599;SDS011;33323;52.124;6.018;2022-11-15T04:58:52;36.08;;;18.40;;
47599;SDS011;33323;52.124;6.018;2022-11-15T05:01:38;41.50;;;19.80;;
47599;SDS011;33323;52.124;6.018;2022-11-15T05:04:28;41.70;;;21.23;;
47599;SDS011;33323;52.124;6.018;2022-11-15T05:07:14;32.95;;;17.83;;
47599;SDS011;33323;52.124;6.018;2022-11-15T05:10:00;31.90;;;17.30;;
47599;SDS011;33323;52.124;6.018;2022-11-15T05:12:46;31.38;;;17.13;;
47599;SDS011;33323;52.124;6.018;2022-11-15T05:15:32;33.55;;;18.42;;
47599;SDS011;33323;52.124;6.018;2022-11-15T05:18:18;29.70;;;17.73;;
47599;SDS011;33323;52.124;6.018;2022-11-15T05:21:08;32.88;;;17.65;;
47599;SDS011;33323;52.124;6.018;2022-11-15T05:23:59;37.25;;;20.85;;
47599;SDS011;33323;52.124;6.018;2022-11-15T05:29:31;34.30;;;17.25;;
47599;SDS011;33323;52.124;6.018;2022-11-15T05:32:16;33.28;;;20.10;;
47599;SDS011;33323;52.124;6.018;2022-11-15T05:35:03;33.90;;;17.67;;
47599;SDS011;33323;52.124;6.018;2022-11-15T05:37:52;37.55;;;19.15;;
47599;SDS011;33323;52.124;6.018;2022-11-15T05:40:38;31.55;;;19.27;;
47599;SDS011;33323;52.124;6.018;2022-11-15T05:43:24;33.72;;;18.70;;
47599;SDS011;33323;52.124;6.018;2022-11-15T05:46:09;33.85;;;19.30;;
47599;SDS011;33323;52.124;6.018;2022-11-15T05:48:55;29.77;;;16.70;;
47599;SDS011;33323;52.124;6.018;2022-11-15T05:51:42;31.38;;;19.05;;
47599;SDS011;33323;52.124;6.018;2022-11-15T05:54:30;44.08;;;19.92;;
47599;SDS011;33323;52.124;6.018;2022-11-15T05:57:17;38.80;;;20.10;;
47599;SDS011;33323;52.124;6.018;2022-11-15T06:00:03;34.85;;;18.33;;
47599;SDS011;33323;52.124;6.018;2022-11-15T06:02:50;36.78;;;20.15;;
47599;SDS011;33323;52.124;6.018;2022-11-15T06:05:35;44.75;;;20.83;;
47599;SDS011;33323;52.124;6.018;2022-11-15T06:08:21;35.10;;;18.00;;
47599;SDS011;33323;52.124;6.018;2022-11-15T06:11:07;39.00;;;21.10;;
47599;SDS011;33323;52.124;6.018;2022-11-15T06:13:53;40.63;;;20.75;;
47599;SDS011;33323;52.124;6.018;2022-11-15T06:16:39;35.65;;;19.45;;
47599;SDS011;33323;52.124;6.018;2022-11-15T06:19:24;43.30;;;22.52;;
47599;SDS011;33323;52.124;6.018;2022-11-15T06:22:10;36.92;;;21.20;;
47599;SDS011;33323;52.124;6.018;2022-11-15T06:24:56;38.28;;;20.83;;
47599;SDS011;33323;52.124;6.018;2022-11-15T06:27:52;33.42;;;17.67;;
47599;SDS011;33323;52.124;6.018;2022-11-15T06:30:38;32.90;;;19.92;;
47599;SDS011;33323;52.124;6.018;2022-11-15T06:33:24;41.35;;;20.63;;
47599;SDS011;33323;52.124;6.018;2022-11-15T06:36:11;33.47;;;18.15;;
47599;SDS011;33323;52.124;6.018;2022-11-15T06:39:04;35.05;;;20.38;;
47599;SDS011;33323;52.124;6.018;2022-11-15T06:41:50;36.13;;;20.75;;
47599;SDS011;33323;52.124;6.018;2022-11-15T06:44:36;31.23;;;18.75;;
47599;SDS011;33323;52.124;6.018;2022-11-15T06:47:21;37.78;;;19.33;;
47599;SDS011;33323;52.124;6.018;2022-11-15T06:50:07;35.45;;;19.13;;
47599;SDS011;33323;52.124;6.018;2022-11-15T06:52:54;36.58;;;19.63;;
47599;SDS011;33323;52.124;6.018;2022-11-15T06:55:39;38.17;;;20.33;;
47599;SDS011;33323;52.124;6.018;2022-11-15T06:58:25;31.42;;;19.20;;
47599;SDS011;33323;52.124;6.018;2022-11-15T07:01:11;37.30;;;22.13;;
47599;SDS011;33323;52.124;6.018;2022-11-15T07:03:58;35.97;;;22.63;;
47599;SDS011;33323;52.124;6.018;2022-11-15T07:06:45;40.42;;;21.23;;
47599;SDS011;33323;52.124;6.018;2022-11-15T07:09:34;39.95;;;22.83;;
47599;SDS011;33323;52.124;6.018;2022-11-15T07:12:20;36.92;;;21.38;;
47599;SDS011;33323;52.124;6.018;2022-11-15T07:15:06;46.38;;;21.15;;
47599;SDS011;33323;52.124;6.018;2022-11-15T07:17:52;31.75;;;18.00;;
47599;SDS011;33323;52.124;6.018;2022-11-15T07:20:37;36.25;;;19.98;;
47599;SDS011;33323;52.124;6.018;2022-11-15T07:23:24;38.03;;;21.55;;
47599;SDS011;33323;52.124;6.018;2022-11-15T07:26:10;45.80;;;22.85;;
47599;SDS011;33323;52.124;6.018;2022-11-15T07:28:56;32.22;;;21.30;;
47599;SDS011;33323;52.124;6.018;2022-11-15T07:31:41;36.40;;;20.23;;
47599;SDS011;33323;52.124;6.018;2022-11-15T07:34:27;31.73;;;18.60;;
47599;SDS011;33323;52.124;6.018;2022-11-15T07:37:13;30.75;;;17.38;;
47599;SDS011;33323;52.124;6.018;2022-11-15T07:39:59;31.13;;;18.75;;
47599;SDS011;33323;52.124;6.018;2022-11-15T07:42:45;33.28;;;18.27;;
47599;SDS011;33323;52.124;6.018;2022-11-15T07:45:41;30.25;;;18.40;;
47599;SDS011;33323;52.124;6.018;2022-11-15T07:48:28;33.38;;;18.48;;
47599;SDS011;33323;52.124;6.018;2022-11-15T07:51:27;25.73;;;16.77;;
47599;SDS011;33323;52.124;6.018;2022-11-15T07:54:13;29.65;;;15.55;;
47599;SDS011;33323;52.124;6.018;2022-11-15T07:56:59;31.27;;;17.38;;
47599;SDS011;33323;52.124;6.018;2022-11-15T07:59:51;28.23;;;16.17;;
47599;SDS011;33323;52.124;6.018;2022-11-15T08:02:37;32.47;;;17.70;;
47599;SDS011;33323;52.124;6.018;2022-11-15T08:05:23;26.42;;;15.77;;
47599;SDS011;33323;52.124;6.018;2022-11-15T08:08:09;26.10;;;14.45;;
47599;SDS011;33323;52.124;6.018;2022-11-15T08:10:59;26.33;;;13.70;;
47599;SDS011;33323;52.124;6.018;2022-11-15T08:13:45;19.38;;;12.98;;
47599;SDS011;33323;52.124;6.018;2022-11-15T08:16:31;22.98;;;13.00;;
47599;SDS011;33323;52.124;6.018;2022-11-15T08:19:17;19.55;;;12.57;;
47599;SDS011;33323;52.124;6.018;2022-11-15T08:22:03;22.17;;;12.68;;
47599;SDS011;33323;52.124;6.018;2022-11-15T08:24:48;23.02;;;13.35;;
47599;SDS011;33323;52.124;6.018;2022-11-15T08:27:34;23.45;;;13.93;;
47599;SDS011;33323;52.124;6.018;2022-11-15T08:30:20;21.02;;;12.85;;
47599;SDS011;33323;52.124;6.018;2022-11-15T08:33:05;22.00;;;13.40;;
47599;SDS011;33323;52.124;6.018;2022-11-15T08:35:59;25.60;;;14.07;;
47599;SDS011;33323;52.124;6.018;2022-11-15T08:38:45;21.67;;;12.23;;
47599;SDS011;33323;52.124;6.018;2022-11-15T08:41:32;22.73;;;15.65;;
47599;SDS011;33323;52.124;6.018;2022-11-15T08:44:20;24.85;;;14.18;;
47599;SDS011;33323;52.124;6.018;2022-11-15T08:47:06;27.88;;;12.52;;
47599;SDS011;33323;52.124;6.018;2022-11-15T08:52:38;25.77;;;14.27;;
47599;SDS011;33323;52.124;6.018;2022-11-15T08:55:24;21.90;;;11.73;;
47599;SDS011;33323;52.124;6.018;2022-11-15T08:58:09;18.90;;;11.57;;
47599;SDS011;33323;52.124;6.018;2022-11-15T09:00:56;20.38;;;11.60;;
47599;SDS011;33323;52.124;6.018;2022-11-15T09:03:41;19.50;;;10.93;;
47599;SDS011;33323;52.124;6.018;2022-11-15T09:06:27;16.48;;;11.05;;
47599;SDS011;33323;52.124;6.018;2022-11-15T09:09:12;18.52;;;12.10;;
47599;SDS011;33323;52.124;6.018;2022-11-15T09:11:58;18.70;;;11.88;;
47599;SDS011;33323;52.124;6.018;2022-11-15T09:14:46;29.63;;;12.90;;
47599;SDS011;33323;52.124;6.018;2022-11-15T09:17:32;18.02;;;11.15;;
47599;SDS011;33323;52.124;6.018;2022-11-15T09:20:17;21.65;;;12.50;;
47599;SDS011;33323;52.124;6.018;2022-11-15T09:23:03;22.23;;;12.35;;
47599;SDS011;33323;52.124;6.018;2022-11-15T09:25:49;23.65;;;13.50;;
47599;SDS011;33323;52.124;6.018;2022-11-15T09:28:36;21.52;;;12.63;;
47599;SDS011;33323;52.124;6.018;2022-11-15T09:31:22;23.77;;;10.55;;
47599;SDS011;33323;52.124;6.018;2022-11-15T09:34:09;20.80;;;13.00;;
47599;SDS011;33323;52.124;6.018;2022-11-15T09:36:56;23.77;;;11.15;;
47599;SDS011;33323;52.124;6.018;2022-11-15T09:39:41;19.45;;;9.07;;
47599;SDS011;33323;52.124;6.018;2022-11-15T09:42:34;15.75;;;9.05;;
47599;SDS011;33323;52.124;6.018;2022-11-15T09:45:50;16.95;;;10.00;;
47599;SDS011;33323;52.124;6.018;2022-11-15T09:48:52;13.23;;;8.70;;
47599;SDS011;33323;52.124;6.018;2022-11-15T09:51:30;17.03;;;9.23;;
47599;SDS011;33323;52.124;6.018;2022-11-15T09:57:13;15.10;;;8.68;;
47599;SDS011;33323;52.124;6.018;2022-11-15T10:05:36;13.57;;;9.50;;
47599;SDS011;33323;52.124;6.018;2022-11-15T10:11:05;12.98;;;7.60;;
47599;SDS011;33323;52.124;6.018;2022-11-15T10:14:04;12.38;;;7.88;;
47599;SDS011;33323;52.124;6.018;2022-11-15T10:17:01;8.50;;;6.13;;
47599;SDS011;33323;52.124;6.018;2022-11-15T10:30:58;11.15;;;5.30;;
47599;SDS011;33323;52.124;6.018;2022-11-15T10:33:39;11.95;;;6.78;;
47599;SDS011;33323;52.124;6.018;2022-11-15T10:44:10;11.25;;;6.97;;
47599;SDS011;33323;52.124;6.018;2022-11-15T10:46:44;9.80;;;6.60;;
47599;SDS011;33323;52.124;6.018;2022-11-15T10:49:22;10.77;;;6.88;;
47599;SDS011;33323;52.124;6.018;2022-11-15T10:51:58;16.95;;;5.57;;
47599;SDS011;33323;52.124;6.018;2022-11-15T10:54:44;8.65;;;5.65;;
47599;SDS011;33323;52.124;6.018;2022-11-15T10:57:20;9.32;;;5.38;;
47599;SDS011;33323;52.124;6.018;2022-11-15T10:59:55;9.15;;;6.28;;
47599;SDS011;33323;52.124;6.018;2022-11-15T11:05:36;6.07;;;3.58;;
47599;SDS011;33323;52.124;6.018;2022-11-15T11:10:54;2.85;;;1.92;;
47599;SDS011;33323;52.124;6.018;2022-11-15T11:13:29;6.70;;;3.38;;
47599;SDS011;33323;52.124;6.018;2022-11-15T11:16:10;4.55;;;2.75;;
47599;SDS011;33323;52.124;6.018;2022-11-15T11:19:55;5.53;;;2.53;;
47599;SDS011;33323;52.124;6.018;2022-11-15T11:22:16;4.72;;;2.47;;
47599;SDS011;33323;52.124;6.018;2022-11-15T11:25:34;4.93;;;1.80;;
47599;SDS011;33323;52.124;6.018;2022-11-15T11:31:23;3.78;;;2.10;;
47599;SDS011;33323;52.124;6.018;2022-11-15T11:40:39;3.90;;;2.40;;
47599;SDS011;33323;52.124;6.018;2022-11-15T11:43:19;5.28;;;1.75;;
47599;SDS011;33323;52.124;6.018;2022-11-15T11:46:05;8.15;;;2.50;;
47599;SDS011;33323;52.124;6.018;2022-11-15T11:48:38;9.82;;;1.85;;
47599;SDS011;33323;52.124;6.018;2022-11-15T11:51:17;1.95;;;1.13;;
47599;SDS011;33323;52.124;6.018;2022-11-15T11:53:57;1.13;;;0.80;;
47599;SDS011;33323;52.124;6.018;2022-11-15T11:56:32;2.42;;;0.90;;
47599;SDS011;33323;52.124;6.018;2022-11-15T11:59:12;2.45;;;1.08;;
47599;SDS011;33323;52.124;6.018;2022-11-15T12:01:55;3.67;;;0.75;;
47599;SDS011;33323;52.124;6.018;2022-11-15T12:04:29;0.75;;;0.40;;
47599;SDS011;33323;52.124;6.018;2022-11-15T12:07:14;2.67;;;1.10;;
47599;SDS011;33323;52.124;6.018;2022-11-15T12:12:44;1.85;;;0.90;;
47599;SDS011;33323;52.124;6.018;2022-11-15T12:15:26;1.77;;;0.82;;
47599;SDS011;33323;52.124;6.018;2022-11-15T12:17:59;4.13;;;1.73;;
47599;SDS011;33323;52.124;6.018;2022-11-15T12:20:34;5.38;;;1.10;;
47599;SDS011;33323;52.124;6.018;2022-11-15T12:23:13;6.82;;;1.25;;
47599;SDS011;33323;52.124;6.018;2022-11-15T12:25:49;4.13;;;0.95;;
47599;SDS011;33323;52.124;6.018;2022-11-15T12:28:37;2.17;;;1.10;;
47599;SDS011;33323;52.124;6.018;2022-11-15T12:31:36;6.00;;;1.00;;
47599;SDS011;33323;52.124;6.018;2022-11-15T12:34:15;2.17;;;0.80;;
47599;SDS011;33323;52.124;6.018;2022-11-15T12:40:25;1.55;;;0.80;;
47599;SDS011;33323;52.124;6.018;2022-11-15T12:45:41;2.47;;;0.43;;
47599;SDS011;33323;52.124;6.018;2022-11-15T12:56:08;1.90;;;1.00;;
47599;SDS011;33323;52.124;6.018;2022-11-15T13:04:14;3.83;;;0.80;;
47599;SDS011;33323;52.124;6.018;2022-11-15T13:12:02;2.30;;;0.35;;
47599;SDS011;33323;52.124;6.018;2022-11-15T13:17:22;0.88;;;0.47;;
47599;SDS011;33323;52.124;6.018;2022-11-15T13:22:48;2.65;;;0.50;;
47599;SDS011;33323;52.124;6.018;2022-11-15T13:28:26;3.45;;;0.98;;
47599;SDS011;33323;52.124;6.018;2022-11-15T13:33:45;1.65;;;0.75;;
47599;SDS011;33323;52.124;6.018;2022-11-15T13:36:20;1.20;;;0.45;;
47599;SDS011;33323;52.124;6.018;2022-11-15T13:38:55;0.80;;;0.55;;
47599;SDS011;33323;52.124;6.018;2022-11-15T13:41:27;1.55;;;0.60;;
47599;SDS011;33323;52.124;6.018;2022-11-15T13:44:00;3.03;;;0.47;;
47599;SDS011;33323;52.124;6.018;2022-11-15T13:46:30;3.47;;;0.70;;
47599;SDS011;33323;52.124;6.018;2022-11-15T13:49:00;1.40;;;0.40;;
47599;SDS011;33323;52.124;6.018;2022-11-15T13:51:39;1.05;;;0.40;;
47599;SDS011;33323;52.124;6.018;2022-11-15T13:54:18;1.75;;;0.60;;
47599;SDS011;33323;52.124;6.018;2022-11-15T13:57:18;1.42;;;0.50;;
47599;SDS011;33323;52.124;6.018;2022-11-15T14:00:04;4.25;;;0.50;;
47599;SDS011;33323;52.124;6.018;2022-11-15T14:02:48;2.72;;;0.50;;
47599;SDS011;33323;52.124;6.018;2022-11-15T14:05:19;4.40;;;0.73;;
47599;SDS011;33323;52.124;6.018;2022-11-15T14:08:31;3.58;;;0.80;;
47599;SDS011;33323;52.124;6.018;2022-11-15T14:10:42;2.72;;;0.80;;
47599;SDS011;33323;52.124;6.018;2022-11-15T14:13:28;1.67;;;0.60;;
47599;SDS011;33323;52.124;6.018;2022-11-15T14:16:17;7.28;;;1.25;;
47599;SDS011;33323;52.124;6.018;2022-11-15T14:21:18;2.17;;;0.85;;
47599;SDS011;33323;52.124;6.018;2022-11-15T14:23:46;4.57;;;1.23;;
47599;SDS011;33323;52.124;6.018;2022-11-15T14:26:25;6.90;;;1.20;;
47599;SDS011;33323;52.124;6.018;2022-11-15T14:32:05;1.70;;;1.00;;
47599;SDS011;33323;52.124;6.018;2022-11-15T14:34:43;1.73;;;0.90;;
47599;SDS011;33323;52.124;6.018;2022-11-15T14:37:26;3.80;;;1.65;;
47599;SDS011;33323;52.124;6.018;2022-11-15T14:40:04;2.20;;;1.27;;
47599;SDS011;33323;52.124;6.018;2022-11-15T14:42:32;2.75;;;0.98;;
47599;SDS011;33323;52.124;6.018;2022-11-15T14:44:59;3.45;;;0.82;;
47599;SDS011;33323;52.124;6.018;2022-11-15T14:47:26;3.42;;;1.00;;
47599;SDS011;33323;52.124;6.018;2022-11-15T14:49:53;1.38;;;0.70;;
47599;SDS011;33323;52.124;6.018;2022-11-15T14:52:24;2.97;;;1.00;;
47599;SDS011;33323;52.124;6.018;2022-11-15T14:55:00;3.00;;;0.68;;
47599;SDS011;33323;52.124;6.018;2022-11-15T14:57:39;3.53;;;1.10;;
47599;SDS011;33323;52.124;6.018;2022-11-15T15:00:06;3.75;;;0.90;;
47599;SDS011;33323;52.124;6.018;2022-11-15T15:02:38;3.05;;;0.82;;
47599;SDS011;33323;52.124;6.018;2022-11-15T15:05:30;3.88;;;1.27;;
47599;SDS011;33323;52.124;6.018;2022-11-15T15:08:01;1.98;;;1.20;;
47599;SDS011;33323;52.124;6.018;2022-11-15T15:10:36;6.38;;;1.20;;
47599;SDS011;33323;52.124;6.018;2022-11-15T15:13:20;1.98;;;1.45;;
47599;SDS011;33323;52.124;6.018;2022-11-15T15:15:49;3.00;;;1.58;;
47599;SDS011;33323;52.124;6.018;2022-11-15T15:18:18;5.30;;;1.98;;
47599;SDS011;33323;52.124;6.018;2022-11-15T15:20:54;9.20;;;1.48;;
47599;SDS011;33323;52.124;6.018;2022-11-15T15:23:28;2.78;;;0.70;;
47599;SDS011;33323;52.124;6.018;2022-11-15T15:25:57;1.65;;;0.85;;
47599;SDS011;33323;52.124;6.018;2022-11-15T15:28:24;4.00;;;1.23;;
47599;SDS011;33323;52.124;6.018;2022-11-15T15:30:59;2.87;;;1.23;;
47599;SDS011;33323;52.124;6.018;2022-11-15T15:33:26;2.25;;;1.48;;
47599;SDS011;33323;52.124;6.018;2022-11-15T15:35:53;3.78;;;1.13;;
47599;SDS011;33323;52.124;6.018;2022-11-15T15:38:20;2.15;;;1.25;;
47599;SDS011;33323;52.124;6.018;2022-11-15T15:40:47;3.35;;;1.20;;
47599;SDS011;33323;52.124;6.018;2022-11-15T15:43:16;2.22;;;1.10;;
47599;SDS011;33323;52.124;6.018;2022-11-15T15:45:43;7.60;;;1.48;;
47599;SDS011;33323;52.124;6.018;2022-11-15T15:48:15;4.32;;;1.60;;
47599;SDS011;33323;52.124;6.018;2022-11-15T15:50:43;3.75;;;1.23;;
47599;SDS011;33323;52.124;6.018;2022-11-15T15:53:10;6.53;;;1.48;;
47599;SDS011;33323;52.124;6.018;2022-11-15T15:55:38;2.55;;;1.13;;
47599;SDS011;33323;52.124;6.018;2022-11-15T15:58:06;3.25;;;1.30;;
47599;SDS011;33323;52.124;6.018;2022-11-15T16:00:34;2.70;;;1.13;;
47599;SDS011;33323;52.124;6.018;2022-11-15T16:03:02;4.18;;;1.50;;
47599;SDS011;33323;52.124;6.018;2022-11-15T16:05:29;4.43;;;1.00;;
47599;SDS011;33323;52.124;6.018;2022-11-15T16:07:56;2.85;;;1.30;;
47599;SDS011;33323;52.124;6.018;2022-11-15T16:10:24;2.65;;;1.10;;
47599;SDS011;33323;52.124;6.018;2022-11-15T16:12:54;5.30;;;1.30;;
47599;SDS011;33323;52.124;6.018;2022-11-15T16:15:23;3.17;;;1.50;;
47599;SDS011;33323;52.124;6.018;2022-11-15T16:17:54;3.05;;;1.00;;
47599;SDS011;33323;52.124;6.018;2022-11-15T16:23:11;3.30;;;1.25;;
47599;SDS011;33323;52.124;6.018;2022-11-15T16:25:48;3.50;;;1.15;;
47599;SDS011;33323;52.124;6.018;2022-11-15T16:31:10;5.10;;;1.58;;
47599;SDS011;33323;52.124;6.018;2022-11-15T16:33:38;4.80;;;1.00;;
47599;SDS011;33323;52.124;6.018;2022-11-15T16:36:12;7.88;;;1.27;;
47599;SDS011;33323;52.124;6.018;2022-11-15T16:38:55;2.22;;;0.90;;
47599;SDS011;33323;52.124;6.018;2022-11-15T16:41:23;3.78;;;1.15;;
47599;SDS011;33323;52.124;6.018;2022-11-15T16:43:50;4.38;;;0.93;;
47599;SDS011;33323;52.124;6.018;2022-11-15T16:46:24;4.38;;;1.08;;
47599;SDS011;33323;52.124;6.018;2022-11-15T16:48:54;2.80;;;1.10;;
47599;SDS011;33323;52.124;6.018;2022-11-15T16:51:21;3.80;;;1.05;;
47599;SDS011;33323;52.124;6.018;2022-11-15T16:53:49;5.32;;;1.35;;
47599;SDS011;33323;52.124;6.018;2022-11-15T16:56:21;4.03;;;0.80;;
47599;SDS011;33323;52.124;6.018;2022-11-15T16:58:56;3.33;;;1.58;;
47599;SDS011;33323;52.124;6.018;2022-11-15T17:01:28;3.65;;;0.95;;
47599;SDS011;33323;52.124;6.018;2022-11-15T17:04:01;4.82;;;0.98;;
47599;SDS011;33323;52.124;6.018;2022-11-15T17:06:38;3.45;;;1.23;;
47599;SDS011;33323;52.124;6.018;2022-11-15T17:09:10;4.22;;;1.30;;
47599;SDS011;33323;52.124;6.018;2022-11-15T17:11:50;4.35;;;1.48;;
47599;SDS011;33323;52.124;6.018;2022-11-15T17:14:18;5.60;;;1.45;;
47599;SDS011;33323;52.124;6.018;2022-11-15T17:16:45;2.33;;;1.17;;
47599;SDS011;33323;52.124;6.018;2022-11-15T17:19:13;7.78;;;1.98;;
47599;SDS011;33323;52.124;6.018;2022-11-15T17:21:42;11.43;;;2.40;;
47599;SDS011;33323;52.124;6.018;2022-11-15T17:24:10;3.33;;;1.30;;
47599;SDS011;33323;52.124;6.018;2022-11-15T17:26:37;5.03;;;3.15;;
47599;SDS011;33323;52.124;6.018;2022-11-15T17:29:06;4.70;;;1.70;;
47599;SDS011;33323;52.124;6.018;2022-11-15T17:31:38;3.05;;;2.03;;
47599;SDS011;33323;52.124;6.018;2022-11-15T17:34:05;6.13;;;2.22;;
47599;SDS011;33323;52.124;6.018;2022-11-15T17:36:32;3.90;;;1.88;;
47599;SDS011;33323;52.124;6.018;2022-11-15T17:39:00;6.63;;;1.90;;
47599;SDS011;33323;52.124;6.018;2022-11-15T17:41:27;2.30;;;1.50;;
47599;SDS011;33323;52.124;6.018;2022-11-15T17:43:55;3.97;;;1.67;;
47599;SDS011;33323;52.124;6.018;2022-11-15T17:46:25;3.78;;;1.50;;
47599;SDS011;33323;52.124;6.018;2022-11-15T17:48:53;2.53;;;1.20;;
47599;SDS011;33323;52.124;6.018;2022-11-15T17:51:22;8.40;;;2.78;;
47599;SDS011;33323;52.124;6.018;2022-11-15T17:53:49;2.20;;;1.00;;
47599;SDS011;33323;52.124;6.018;2022-11-15T17:56:17;1.88;;;1.25;;
47599;SDS011;33323;52.124;6.018;2022-11-15T17:58:47;4.28;;;1.85;;
47599;SDS011;33323;52.124;6.018;2022-11-15T18:01:18;2.40;;;1.45;;
47599;SDS011;33323;52.124;6.018;2022-11-15T18:03:50;2.78;;;1.40;;
47599;SDS011;33323;52.124;6.018;2022-11-15T18:06:18;5.47;;;2.05;;
47599;SDS011;33323;52.124;6.018;2022-11-15T18:08:47;3.50;;;2.20;;
47599;SDS011;33323;52.124;6.018;2022-11-15T18:11:17;3.38;;;1.73;;
47599;SDS011;33323;52.124;6.018;2022-11-15T18:13:55;7.30;;;1.98;;